Time;durP1;ratioP1;P1;durP2;ratioP2;P2;SDS_P1;SDS_P2;PMS_P1;PMS_P2;Temp;Humidity;BMP_temperature;BMP_pressure;BME280_temperature;BME280_humidity;BME280_pressure;Samples;Min_cycle;Max_cycle;Signal;HPM_P1;HPM_P2
2023/07/06 00:00:49;;;;;;;43.17;10.93;;;;;;;;;;5123189;27;20831;-62
2023/07/06 00:03:16;;;;;;;50.93;11.93;;;;;;;;;;5108957;27;20843;-62
2023/07/06 00:05:45;;;;;;;36.50;9.90;;;13.80;95.60;;;;;;5122374;27;20481;-62
2023/07/06 00:08:12;;;;;;;45.03;11.10;;;13.70;95.70;;;;;;5122000;27;20999;-62
2023/07/06 00:10:39;;;;;;;50.03;11.70;;;;;;;;;;5097761;27;20486;-62
2023/07/06 00:13:06;;;;;;;62.50;13.70;;;;;;;;;;5125826;27;20483;-62
2023/07/06 00:15:35;;;;;;;33.13;8.57;;;13.90;95.40;;;;;;5124058;27;20471;-61
2023/07/06 00:18:03;;;;;;;58.47;13.50;;;;;;;;;;5127756;27;20619;-62
2023/07/06 00:20:32;;;;;;;47.57;12.07;;;;;;;;;;5123084;27;20474;-61
2023/07/06 00:22:59;;;;;;;67.13;15.13;;;13.30;96.50;;;;;;5122191;27;20539;-61
2023/07/06 00:25:26;;;;;;;26.23;7.90;;;;;;;;;;5122176;27;20474;-62
2023/07/06 00:27:54;;;;;;;40.23;10.63;;;;;;;;;;5122269;27;20481;-62
2023/07/06 00:30:30;;;;;;;42.37;10.93;;;;;;;;;;5123720;27;20998;-62
2023/07/06 00:32:59;;;;;;;40.77;10.40;;;13.20;96.50;;;;;;5120263;27;20475;-61
2023/07/06 00:35:26;;;;;;;70.57;18.90;;;;;;;;;;5120154;27;20564;-62
2023/07/06 00:37:59;;;;;;;34.90;9.70;;;;;;;;;;5123035;27;21115;-62
2023/07/06 00:40:26;;;;;;;45.07;11.33;;;;;;;;;;5124834;27;20615;-62
2023/07/06 00:42:54;;;;;;;38.23;10.33;;;13.30;95.90;;;;;;5120876;27;20594;-62
2023/07/06 00:45:21;;;;;;;31.93;9.20;;;;;;;;;;5124462;27;20567;-62
2023/07/06 00:47:51;;;;;;;32.87;8.60;;;13.00;96.50;;;;;;5121725;27;20841;-62
2023/07/06 00:50:22;;;;;;;38.97;10.57;;;12.80;96.90;;;;;;5123548;27;21036;-61
2023/07/06 00:52:52;;;;;;;50.43;12.03;;;12.80;97.10;;;;;;5119044;27;20485;-62
2023/07/06 00:55:22;;;;;;;38.47;10.10;;;12.70;97.10;;;;;;5122759;27;20484;-62
2023/07/06 00:57:52;;;;;;;33.13;8.73;;;12.80;97.00;;;;;;5124863;27;20979;-62
2023/07/06 01:00:21;;;;;;;33.53;9.63;;;12.90;96.80;;;;;;5121317;27;20474;-62
2023/07/06 01:02:52;;;;;;;29.67;8.87;;;;;;;;;;5111225;28;20954;-62
2023/07/06 01:05:23;;;;;;;43.03;11.37;;;12.80;96.70;;;;;;5113199;27;20843;-62
2023/07/06 01:07:51;;;;;;;31.07;8.47;;;;;;;;;;5113158;27;20483;-62
2023/07/06 01:10:19;;;;;;;33.23;9.20;;;12.80;96.50;;;;;;5113784;27;20477;-62
2023/07/06 01:12:46;;;;;;;61.93;14.57;;;12.70;96.80;;;;;;5112176;27;20481;-62
2023/07/06 01:15:16;;;;;;;44.80;10.60;;;;;;;;;;5113233;27;20616;-62
2023/07/06 01:17:48;;;;;;;42.07;8.20;;;12.80;97.00;;;;;;5066669;28;20477;-62
2023/07/06 01:20:25;;;;;;;39.97;11.03;;;12.70;96.90;;;;;;5102815;28;21001;-61
2023/07/06 01:23:20;;;;;;;32.33;8.73;;;12.70;96.70;;;;;;5114067;28;20547;-61
2023/07/06 01:26:02;;;;;;;23.87;7.87;;;15.50;97.70;;;;;;5102806;27;20482;-62
2023/07/06 01:28:46;;;;;;;29.20;7.67;;;12.70;96.30;;;;;;5113766;27;20864;-62
2023/07/06 01:31:29;;;;;;;51.90;12.40;;;12.60;96.50;;;;;;5112182;28;20486;-62
2023/07/06 01:34:01;;;;;;;37.40;9.47;;;12.60;96.50;;;;;;5114019;28;20490;-61
2023/07/06 01:36:34;;;;;;;37.03;10.13;;;12.60;96.20;;;;;;5103014;27;20471;-63
2023/07/06 01:39:12;;;;;;;64.13;15.13;;;12.60;96.60;;;;;;5096488;28;20858;-63
2023/07/06 01:41:40;;;;;;;34.60;9.30;;;;;;;;;;5111999;27;20473;-63
2023/07/06 01:44:07;;;;;;;45.50;11.70;;;;;;;;;;5113872;27;20768;-62
2023/07/06 01:46:35;;;;;;;31.13;9.27;;;12.70;96.30;;;;;;5115073;27;20483;-62
2023/07/06 01:49:05;;;;;;;51.13;13.10;;;;;;;;;;5113658;28;21015;-63
2023/07/06 01:51:37;;;;;;;42.17;11.50;;;12.70;96.20;;;;;;5110948;27;21046;-63
2023/07/06 01:54:11;;;;;;;64.53;14.20;;;12.60;96.00;;;;;;5073261;27;1129055;-62
2023/07/06 01:56:45;;;;;;;30.90;8.40;;;12.60;95.90;;;;;;5112181;27;20241;-62
2023/07/06 01:59:17;;;;;;;39.47;9.80;;;12.60;96.10;;;;;;5102342;27;21133;-62
2023/07/06 02:01:49;;;;;;;34.53;9.20;;;12.60;96.30;;;;;;5116150;27;20504;-62
2023/07/06 02:04:20;;;;;;;37.10;9.97;;;12.60;96.30;;;;;;5082071;27;20474;-62
2023/07/06 02:06:53;;;;;;;26.50;7.93;;;12.60;96.20;;;;;;5115273;27;20477;-62
2023/07/06 02:09:20;;;;;;;47.90;11.30;;;;;;;;;;5098616;27;20469;-61
2023/07/06 02:11:47;;;;;;;27.30;8.10;;;12.70;95.70;;;;;;5115121;27;20481;-62
2023/07/06 02:14:14;;;;;;;32.10;8.50;;;;;;;;;;5117309;27;20469;-62
2023/07/06 02:16:41;;;;;;;29.20;8.80;;;;;;;;;;5115767;27;20479;-62
2023/07/06 02:19:09;;;;;;;57.83;14.10;;;12.70;95.90;;;;;;5113795;27;20474;-62
2023/07/06 02:21:38;;;;;;;31.50;8.97;;;;;;;;;;5112619;27;20738;-62
2023/07/06 02:24:06;;;;;;;52.57;12.77;;;12.60;95.20;;;;;;5117340;27;20485;-62
2023/07/06 02:26:33;;;;;;;31.60;8.63;;;;;;;;;;5094772;27;20499;-62
2023/07/06 02:29:01;;;;;;;55.67;13.87;;;12.50;95.20;;;;;;5103253;27;21004;-62
2023/07/06 02:31:28;;;;;;;29.77;8.37;;;;;;;;;;5114625;27;20474;-62
2023/07/06 02:33:55;;;;;;;29.60;8.07;;;;;;;;;;5114293;27;20504;-62
2023/07/06 02:36:24;;;;;;;36.23;9.37;;;12.30;95.10;;;;;;5113381;27;20465;-62
2023/07/06 02:38:52;;;;;;;39.60;10.67;;;;;;;;;;5115254;27;20539;-62
2023/07/06 02:41:19;;;;;;;33.40;9.70;;;;;;;;;;5114939;27;20485;-62
2023/07/06 02:43:46;;;;;;;32.83;7.50;;;12.20;95.50;;;;;;5115976;27;20888;-62
2023/07/06 02:46:16;;;;;;;42.00;10.80;;;12.10;95.40;;;;;;5115815;27;20474;-61
2023/07/06 02:48:44;;;;;;;26.43;7.50;;;;;;;;;;5117620;27;21138;-61
2023/07/06 02:51:11;;;;;;;42.53;10.07;;;;;;;;;;5114591;27;20484;-62
2023/07/06 02:53:39;;;;;;;30.50;8.67;;;12.10;95.10;;;;;;5118243;27;21027;-62
2023/07/06 02:56:07;;;;;;;62.13;14.40;;;;;;;;;;5117615;27;20961;-61
2023/07/06 02:58:34;;;;;;;32.80;8.10;;;;;;;;;;5117724;27;20482;-61
2023/07/06 03:01:02;;;;;;;57.07;13.57;;;;;;;;;;5116210;27;20483;-62
2023/07/06 03:03:29;;;;;;;30.17;8.57;;;;;;;;;;5116362;27;21034;-62
2023/07/06 03:05:56;;;;;;;50.93;11.83;;;;;;;;;;5115390;27;20504;-61
2023/07/06 03:08:23;;;;;;;25.60;7.17;;;;;;;;;;5116226;27;20465;-61
2023/07/06 03:10:53;;;;;;;30.10;7.53;;;11.90;95.70;;;;;;5116991;27;20475;-61
2023/07/06 03:13:20;;;;;;;30.63;7.87;;;;;;;;;;5103201;27;20469;-61
2023/07/06 03:15:51;;;;;;;39.40;9.43;;;11.70;95.50;;;;;;5116756;27;20473;-61
2023/07/06 03:18:19;;;;;;;24.80;7.20;;;;;;;;;;5118283;27;20471;-62
2023/07/06 03:20:49;;;;;;;32.63;8.50;;;11.60;95.60;;;;;;5118364;27;20498;-62
2023/07/06 03:23:18;;;;;;;33.13;8.57;;;;;;;;;;5115235;27;20485;-62
2023/07/06 03:25:45;;;;;;;30.03;8.20;;;11.60;95.60;;;;;;5118840;27;20468;-61
2023/07/06 03:28:15;;;;;;;45.93;10.47;;;11.60;96.00;;;;;;5114199;27;20483;-61
2023/07/06 03:30:44;;;;;;;30.80;8.13;;;;;;;;;;5110528;27;20485;-60
2023/07/06 03:33:11;;;;;;;62.37;13.63;;;;;;;;;;5112497;27;21030;-60
2023/07/06 03:35:41;;;;;;;31.93;8.80;;;11.70;95.70;;;;;;5114608;27;20477;-60
2023/07/06 03:38:09;;;;;;;61.93;13.63;;;;;;;;;;5113244;27;21019;-60
2023/07/06 03:40:38;;;;;;;43.40;10.10;;;;;;;;;;5112227;27;20779;-60
2023/07/06 03:43:06;;;;;;;67.40;14.47;;;;;;;;;;5112828;28;20977;-60
2023/07/06 03:45:34;;;;;;;38.43;9.50;;;11.60;95.40;;;;;;5109750;27;20472;-60
2023/07/06 03:48:01;;;;;;;66.73;14.30;;;;;;;;;;5110383;27;20491;-60
2023/07/06 03:50:28;;;;;;;30.27;8.17;;;;;;;;;;5112748;27;20949;-60
2023/07/06 03:52:57;;;;;;;39.83;10.50;;;;;;;;;;5093359;27;20480;-60
2023/07/06 03:55:26;;;;;;;29.67;7.87;;;11.40;95.60;;;;;;5104862;27;21191;-60
2023/07/06 03:57:53;;;;;;;21.70;7.43;;;11.30;95.80;;;;;;5114881;27;20494;-60
2023/07/06 04:00:21;;;;;;;30.20;9.30;;;11.10;96.60;;;;;;5085365;28;20461;-60
2023/07/06 04:02:51;;;;;;;31.20;9.80;;;11.10;96.80;;;;;;5111366;27;20484;-60
2023/07/06 04:05:22;;;;;;;27.00;8.00;;;11.00;96.70;;;;;;5118055;27;20999;-60
2023/07/06 04:07:52;;;;;;;31.20;7.53;;;11.20;96.60;;;;;;5115205;27;20475;-60
2023/07/06 04:10:19;;;;;;;31.10;10.23;;;11.20;96.50;;;;;;5114739;27;20474;-60
2023/07/06 04:12:46;;;;;;;41.57;12.07;;;11.20;96.60;;;;;;5115232;28;20474;-60
2023/07/06 04:15:13;;;;;;;31.37;9.20;;;11.30;96.70;;;;;;5095026;28;21163;-60
2023/07/06 04:17:40;;;;;;;27.73;9.57;;;11.40;96.70;;;;;;5113286;27;20790;-61
2023/07/06 04:20:18;;;;;;;57.23;15.13;;;;;;;;;;5111551;27;20469;-60
2023/07/06 04:22:45;;;;;;;36.87;10.57;;;11.30;96.70;;;;;;5111756;27;22183;-61
2023/07/06 04:25:14;;;;;;;26.83;8.40;;;11.30;96.60;;;;;;5112272;27;20476;-61
2023/07/06 04:27:42;;;;;;;28.67;9.27;;;11.30;96.60;;;;;;5112586;27;20475;-61
2023/07/06 04:30:11;;;;;;;46.40;12.70;;;11.20;96.70;;;;;;5112747;27;21059;-61
2023/07/06 04:32:38;;;;;;;28.50;9.20;;;11.80;97.50;;;;;;5113114;27;20850;-61
2023/07/06 04:35:06;;;;;;;44.40;12.20;;;11.30;97.30;;;;;;5114637;27;20855;-61
2023/07/06 04:37:34;;;;;;;30.03;9.67;;;11.30;97.40;;;;;;5117016;27;20543;-61
2023/07/06 04:40:05;;;;;;;53.43;14.97;;;11.40;97.50;;;;;;5116104;27;20674;-61
2023/07/06 04:42:32;;;;;;;37.30;10.80;;;11.50;97.40;;;;;;5098664;27;20472;-61
2023/07/06 04:44:59;;;;;;;45.50;13.87;;;11.50;97.90;;;;;;5113389;27;20467;-61
2023/07/06 04:47:25;;;;;;;35.93;11.43;;;11.50;98.10;;;;;;5117837;27;20481;-61
2023/07/06 04:49:52;;;;;;;25.10;8.97;;;11.60;98.40;;;;;;5101707;27;20848;-61
2023/07/06 04:52:19;;;;;;;33.10;10.33;;;11.60;98.40;;;;;;5104894;27;20476;-61
2023/07/06 04:54:50;;;;;;;25.63;8.90;;;11.70;98.50;;;;;;5116208;27;20482;-60
2023/07/06 04:57:17;;;;;;;20.23;8.27;;;11.70;98.60;;;;;;5099374;27;20544;-61
2023/07/06 04:59:45;;;;;;;30.27;9.57;;;11.80;98.70;;;;;;5112295;27;20476;-61
2023/07/06 05:02:12;;;;;;;44.20;13.40;;;11.70;98.90;;;;;;5114355;27;20583;-61
2023/07/06 05:04:40;;;;;;;28.00;9.33;;;11.90;99.10;;;;;;5114574;27;21093;-61
2023/07/06 05:07:07;;;;;;;46.13;13.93;;;12.00;99.40;;;;;;5113586;27;20728;-61
2023/07/06 05:09:36;;;;;;;34.43;11.30;;;12.00;99.50;;;;;;5116239;27;20482;-61
2023/07/06 05:12:05;;;;;;;51.07;15.10;;;12.00;99.70;;;;;;5115515;27;20484;-60
2023/07/06 05:14:34;;;;;;;27.73;9.73;;;12.20;99.90;;;;;;5114541;27;20493;-60
2023/07/06 05:17:01;;;;;;;28.70;10.20;;;12.20;99.90;;;;;;5097914;27;20519;-61
2023/07/06 05:19:27;;;;;;;37.70;12.23;;;12.20;99.90;;;;;;5102894;27;20480;-61
2023/07/06 05:21:55;;;;;;;40.90;12.73;;;12.30;99.90;;;;;;5113536;27;20470;-61
2023/07/06 05:24:21;;;;;;;22.83;9.10;;;12.40;99.90;;;;;;5116112;27;20468;-61
2023/07/06 05:26:48;;;;;;;20.03;8.97;;;12.50;99.90;;;;;;5114697;27;20478;-61
2023/07/06 05:29:16;;;;;;;35.67;11.50;;;12.60;99.90;;;;;;5112831;27;20492;-60
2023/07/06 05:31:45;;;;;;;25.47;9.70;;;12.80;99.90;;;;;;5114766;27;20495;-61
2023/07/06 05:34:13;;;;;;;41.03;12.73;;;12.90;99.90;;;;;;5113477;27;20811;-60
2023/07/06 05:36:39;;;;;;;31.87;11.93;;;13.10;99.90;;;;;;5114851;27;20479;-61
2023/07/06 05:39:07;;;;;;;100.30;25.47;;;13.10;99.90;;;;;;5112290;27;20923;-61
2023/07/06 05:41:34;;;;;;;31.20;11.70;;;13.20;99.90;;;;;;5113575;27;20508;-61
2023/07/06 05:44:01;;;;;;;46.23;14.27;;;13.30;99.90;;;;;;5114500;27;20479;-61
2023/07/06 05:46:29;;;;;;;35.20;10.53;;;13.50;99.90;;;;;;5113722;27;20784;-61
2023/07/06 05:48:56;;;;;;;31.00;11.03;;;13.70;99.90;;;;;;5115139;27;20481;-60
2023/07/06 05:51:23;;;;;;;28.40;10.50;;;13.90;99.90;;;;;;5113302;27;20877;-61
2023/07/06 05:53:50;;;;;;;27.03;9.70;;;14.10;99.90;;;;;;5115222;27;20484;-60
2023/07/06 05:56:18;;;;;;;24.30;9.27;;;14.20;99.90;;;;;;5115132;27;20475;-61
2023/07/06 05:58:45;;;;;;;26.93;9.90;;;14.30;99.90;;;;;;5113764;27;20475;-60
2023/07/06 06:01:12;;;;;;;32.47;10.90;;;14.50;99.90;;;;;;5113391;27;20714;-60
2023/07/06 06:03:40;;;;;;;30.50;10.20;;;14.60;99.90;;;;;;5114121;27;20497;-60
2023/07/06 06:06:07;;;;;;;40.93;14.07;;;14.70;99.90;;;;;;5115893;27;20478;-60
2023/07/06 06:08:34;;;;;;;33.53;9.10;;;14.90;99.90;;;;;;5115042;27;21003;-60
2023/07/06 06:11:01;;;;;;;40.80;13.50;;;15.00;99.90;;;;;;5113352;27;20507;-60
2023/07/06 06:13:28;;;;;;;23.43;9.30;;;15.10;99.60;;;;;;5113719;27;20486;-60
2023/07/06 06:15:55;;;;;;;31.97;9.37;;;15.20;99.60;;;;;;5109338;27;20546;-60
2023/07/06 06:18:22;;;;;;;26.00;9.13;;;15.30;99.40;;;;;;5092806;27;20894;-61
2023/07/06 06:20:51;;;;;;;22.43;8.60;;;15.50;99.70;;;;;;5108029;27;20486;-61
2023/07/06 06:23:20;;;;;;;24.17;9.20;;;15.70;99.80;;;;;;5113189;27;20485;-60
2023/07/06 06:25:47;;;;;;;25.80;10.17;;;15.80;99.90;;;;;;5116209;27;20947;-61
2023/07/06 06:28:14;;;;;;;22.37;8.43;;;16.00;99.70;;;;;;5113684;27;20741;-61
2023/07/06 06:30:41;;;;;;;21.70;8.37;;;16.20;99.90;;;;;;5114593;27;20469;-61
2023/07/06 06:33:09;;;;;;;43.73;14.03;;;16.40;99.60;;;;;;5113773;27;20477;-60
2023/07/06 06:35:36;;;;;;;19.43;8.27;;;16.50;99.90;;;;;;5114534;27;20563;-61
2023/07/06 06:38:05;;;;;;;32.83;11.43;;;16.60;99.90;;;;;;5114759;27;20499;-61
2023/07/06 06:40:33;;;;;;;25.67;8.73;;;16.90;99.90;;;;;;5085021;27;20463;-61
2023/07/06 06:43:00;;;;;;;43.73;14.90;;;17.00;99.60;;;;;;5083944;27;21032;-61
2023/07/06 06:45:27;;;;;;;24.37;9.13;;;17.20;99.90;;;;;;5114906;27;20905;-61
2023/07/06 06:47:54;;;;;;;20.27;8.27;;;17.30;99.90;;;;;;5107965;27;20481;-61
2023/07/06 06:50:21;;;;;;;22.87;8.43;;;17.50;99.20;;;;;;5113199;27;20798;-61
2023/07/06 06:52:50;;;;;;;24.13;9.13;;;17.80;98.90;;;;;;5114213;27;20476;-61
2023/07/06 06:55:19;;;;;;;18.20;7.97;;;17.90;98.00;;;;;;5113712;27;20485;-61
2023/07/06 06:57:46;;;;;;;15.67;7.30;;;;;;;;;;5113717;27;21176;-62
2023/07/06 07:00:16;;;;;;;21.97;9.10;;;18.40;97.10;;;;;;5106785;27;20472;-62
2023/07/06 07:02:43;;;;;;;26.73;9.73;;;18.60;97.10;;;;;;5111886;27;21043;-61
2023/07/06 07:05:11;;;;;;;34.90;11.43;;;18.80;96.70;;;;;;5114100;27;20468;-62
2023/07/06 07:07:38;;;;;;;21.23;8.50;;;19.10;96.30;;;;;;5113205;27;20484;-61
2023/07/06 07:10:09;;;;;;;38.97;13.03;;;19.30;96.10;;;;;;5113152;27;20788;-61
2023/07/06 07:12:38;;;;;;;21.13;8.90;;;19.60;95.90;;;;;;5114681;27;20503;-62
2023/07/06 07:15:05;;;;;;;26.80;11.13;;;19.90;95.10;;;;;;5111459;27;20712;-61
2023/07/06 07:17:33;;;;;;;27.60;10.30;;;20.20;93.90;;;;;;5082812;27;20484;-64
2023/07/06 07:20:00;;;;;;;33.03;11.10;;;20.40;93.90;;;;;;5113754;27;20476;-63
2023/07/06 07:22:28;;;;;;;19.43;8.87;;;20.60;93.30;;;;;;5112591;27;20472;-62
2023/07/06 07:24:55;;;;;;;14.83;6.87;;;20.80;93.00;;;;;;5111532;27;20492;-63
2023/07/06 07:27:22;;;;;;;16.20;7.23;;;21.20;92.00;;;;;;5114959;27;20841;-63
2023/07/06 07:29:51;;;;;;;26.93;11.20;;;21.30;92.80;;;;;;5112900;27;20621;-62
2023/07/06 07:32:20;;;;;;;25.57;9.33;;;21.60;90.90;;;;;;5113642;27;20489;-62
2023/07/06 07:34:50;;;;;;;19.03;7.17;;;21.90;90.40;;;;;;5114567;27;20695;-62
2023/07/06 07:37:18;;;;;;;17.23;7.27;;;22.10;90.00;;;;;;5111637;27;20478;-62
2023/07/06 07:39:45;;;;;;;26.93;10.27;;;22.30;90.20;;;;;;5118633;27;20553;-62
2023/07/06 07:42:12;;;;;;;27.13;11.60;;;22.40;87.30;;;;;;5117728;28;20545;-62
2023/07/06 07:44:39;;;;;;;24.73;9.80;;;22.50;85.60;;;;;;5116914;28;20513;-62
2023/07/06 07:47:07;;;;;;;26.70;12.13;;;22.60;82.80;;;;;;5115564;27;20485;-62
2023/07/06 07:49:35;;;;;;;20.60;8.37;;;22.50;83.60;;;;;;5085114;28;21062;-61
2023/07/06 07:52:02;;;;;;;34.87;13.20;;;22.30;84.00;;;;;;5114808;28;20472;-61
2023/07/06 07:54:29;;;;;;;18.80;8.07;;;22.60;89.00;;;;;;5113176;27;20469;-62
2023/07/06 07:56:56;;;;;;;19.70;7.70;;;22.80;87.70;;;;;;5115966;27;20670;-61
2023/07/06 07:59:24;;;;;;;19.50;8.30;;;22.90;84.80;;;;;;5115934;27;20863;-62
2023/07/06 08:01:51;;;;;;;16.93;7.40;;;23.00;84.60;;;;;;5115944;27;20468;-62
2023/07/06 08:04:20;;;;;;;14.97;6.67;;;23.20;86.10;;;;;;5113328;28;20749;-62
2023/07/06 08:06:47;;;;;;;12.57;6.60;;;23.20;82.20;;;;;;5113525;27;20472;-62
2023/07/06 08:09:14;;;;;;;19.70;7.70;;;23.60;85.00;;;;;;5112864;27;20474;-62
2023/07/06 08:11:46;;;;;;;21.13;7.87;;;23.90;85.20;;;;;;5117958;27;20481;-63
2023/07/06 08:14:14;;;;;;;19.30;8.87;;;24.10;83.50;;;;;;5114955;27;20468;-62
2023/07/06 08:16:41;;;;;;;19.07;6.97;;;24.20;80.40;;;;;;5118099;27;20472;-62
2023/07/06 08:19:08;;;;;;;27.00;11.80;;;24.10;80.60;;;;;;5117462;27;20494;-63
2023/07/06 08:21:37;;;;;;;21.80;8.93;;;24.00;77.90;;;;;;5113257;27;20514;-63
2023/07/06 08:24:04;;;;;;;22.50;8.83;;;23.70;77.70;;;;;;5098044;27;20692;-63
2023/07/06 08:26:31;;;;;;;20.27;9.47;;;23.50;77.30;;;;;;5119945;27;20447;-62
2023/07/06 08:28:58;;;;;;;25.80;9.97;;;23.50;79.40;;;;;;5115247;27;20926;-62
2023/07/06 08:31:26;;;;;;;17.63;6.47;;;23.20;78.30;;;;;;5120257;27;20476;-62
2023/07/06 08:33:53;;;;;;;14.10;7.17;;;23.20;77.20;;;;;;5118994;27;20488;-62
2023/07/06 08:36:21;;;;;;;16.20;7.63;;;23.20;77.00;;;;;;5117753;27;20465;-63
2023/07/06 08:38:50;;;;;;;17.30;7.03;;;23.40;77.30;;;;;;5112319;27;20476;-62
2023/07/06 08:41:26;;;;;;;15.90;6.83;;;23.60;77.40;;;;;;5086780;27;20787;-62
2023/07/06 08:43:54;;;;;;;13.30;6.93;;;23.70;77.70;;;;;;5090843;27;20477;-62
2023/07/06 08:46:21;;;;;;;14.63;6.97;;;24.00;78.30;;;;;;5105202;27;20464;-62
2023/07/06 08:48:48;;;;;;;13.80;6.20;;;24.20;73.80;;;;;;5112874;27;20933;-62
2023/07/06 08:51:19;;;;;;;10.67;5.57;;;24.10;73.40;;;;;;5110888;27;20860;-61
2023/07/06 08:53:55;;;;;;;13.63;6.83;;;24.10;73.60;;;;;;5113951;27;20807;-62
2023/07/06 08:56:24;;;;;;;12.93;7.37;;;24.20;76.60;;;;;;5117178;27;20469;-62
2023/07/06 08:58:52;;;;;;;14.37;7.27;;;24.20;74.60;;;;;;5094977;27;20885;-62
2023/07/06 09:01:22;;;;;;;19.43;8.63;;;24.10;74.10;;;;;;5116934;27;20506;-62
2023/07/06 09:03:51;;;;;;;13.97;5.80;;;24.00;74.60;;;;;;5119417;27;20904;-62
2023/07/06 09:06:20;;;;;;;19.00;6.77;;;24.20;74.10;;;;;;5092300;27;20597;-62
2023/07/06 09:08:47;;;;;;;21.43;8.70;;;23.90;71.80;;;;;;5118644;27;21003;-62
2023/07/06 09:11:17;;;;;;;16.80;7.67;;;23.60;71.60;;;;;;5116890;27;20560;-61
2023/07/06 09:13:46;;;;;;;12.87;6.50;;;23.20;72.10;;;;;;5116398;27;20472;-61
2023/07/06 09:16:18;;;;;;;21.00;9.03;;;23.10;73.30;;;;;;5115328;27;20479;-62
2023/07/06 09:18:44;;;;;;;21.23;7.73;;;23.30;75.40;;;;;;5115454;27;20455;-62
2023/07/06 09:21:11;;;;;;;19.33;9.00;;;23.50;75.00;;;;;;5116064;27;20443;-63
2023/07/06 09:23:39;;;;;;;21.13;6.97;;;23.60;75.40;;;;;;5112431;27;20999;-63
2023/07/06 09:26:07;;;;;;;25.07;9.00;;;24.30;78.00;;;;;;5116042;27;20468;-63
2023/07/06 09:28:35;;;;;;;16.57;7.03;;;24.40;71.70;;;;;;5116694;27;20480;-62
2023/07/06 09:31:08;;;;;;;27.23;10.80;;;24.20;72.40;;;;;;5112961;27;20861;-62
2023/07/06 09:33:42;;;;;;;30.43;10.50;;;24.40;72.80;;;;;;5097674;27;20538;-62
2023/07/06 09:36:15;;;;;;;25.37;10.60;;;24.40;70.90;;;;;;5113097;27;20450;-62
2023/07/06 09:38:45;;;;;;;20.20;8.20;;;24.40;72.40;;;;;;5113119;27;20473;-63
2023/07/06 09:41:23;;;;;;;18.70;8.47;;;24.50;71.10;;;;;;5086051;27;20483;-63
2023/07/06 09:43:57;;;;;;;18.20;6.33;;;25.00;74.30;;;;;;5110112;27;20519;-63
2023/07/06 09:46:27;;;;;;;17.13;7.67;;;24.90;69.80;;;;;;5116111;27;20838;-62
2023/07/06 09:48:54;;;;;;;15.40;6.13;;;25.20;70.80;;;;;;5114486;27;20896;-63
2023/07/06 09:51:25;;;;;;;14.80;7.10;;;25.40;67.80;;;;;;5114360;27;20499;-63
2023/07/06 09:53:55;;;;;;;16.30;6.60;;;25.30;67.40;;;;;;5112832;27;20476;-62
2023/07/06 09:56:24;;;;;;;12.63;6.53;;;25.40;70.40;;;;;;5115241;27;20505;-62
2023/07/06 09:58:53;;;;;;;16.20;8.17;;;25.30;67.90;;;;;;5109812;27;20461;-62
2023/07/06 10:01:31;;;;;;;15.57;7.67;;;25.20;67.10;;;;;;5113692;27;20576;-62
2023/07/06 10:04:10;;;;;;;23.47;8.30;;;25.10;68.10;;;;;;5114394;27;20682;-63
2023/07/06 10:06:50;;;;;;;20.13;8.87;;;25.10;68.10;;;;;;5101885;27;20775;-63
2023/07/06 10:09:21;;;;;;;16.70;8.53;;;25.30;66.90;;;;;;5085306;27;20440;-62
2023/07/06 10:11:53;;;;;;;10.10;5.93;;;25.40;65.80;;;;;;5105938;27;20565;-63
2023/07/06 10:14:29;;;;;;;18.60;6.13;;;25.60;66.60;;;;;;5118736;27;21002;-62
2023/07/06 10:17:07;;;;;;;10.17;5.87;;;25.50;65.20;;;;;;5116167;27;21043;-63
2023/07/06 10:19:38;;;;;;;23.70;8.67;;;25.70;66.70;;;;;;5115845;27;20554;-63
2023/07/06 10:22:14;;;;;;;23.50;10.30;;;25.70;65.30;;;;;;5117576;27;20481;-63
2023/07/06 10:24:46;;;;;;;18.20;8.00;;;27.10;71.50;;;;;;5117552;27;20473;-63
2023/07/06 10:27:19;;;;;;;14.70;7.20;;;25.70;69.80;;;;;;5110415;27;20462;-63
2023/07/06 10:29:51;;;;;;;17.37;8.07;;;25.50;69.50;;;;;;5115138;27;20480;-63
2023/07/06 10:32:24;;;;;;;16.50;7.50;;;25.50;70.10;;;;;;5113935;27;20445;-64
2023/07/06 10:34:54;;;;;;;10.30;5.80;;;25.50;68.80;;;;;;5102256;27;20619;-63
2023/07/06 10:37:24;;;;;;;16.57;7.87;;;25.50;68.60;;;;;;5114658;27;20449;-63
2023/07/06 10:40:16;;;;;;;15.03;7.93;;;25.60;71.10;;;;;;5114925;27;20555;-62
2023/07/06 10:42:47;;;;;;;16.30;6.50;;;25.80;69.40;;;;;;5111214;27;21039;-63
2023/07/06 10:45:42;;;;;;;17.20;8.13;;;25.80;68.30;;;;;;5112604;27;20555;-63
2023/07/06 10:48:14;;;;;;;22.53;10.70;;;25.70;69.80;;;;;;5113352;27;20475;-63
2023/07/06 10:50:47;;;;;;;17.00;7.70;;;25.70;70.20;;;;;;5113475;27;20479;-62
2023/07/06 10:53:25;;;;;;;17.40;7.70;;;25.60;68.70;;;;;;5113976;27;20452;-63
2023/07/06 10:56:08;;;;;;;16.93;7.67;;;25.50;67.40;;;;;;5112868;27;20881;-63
2023/07/06 10:58:36;;;;;;;17.63;8.20;;;25.40;63.50;;;;;;5080596;27;20480;-63
2023/07/06 11:01:10;;;;;;;24.63;10.77;;;25.40;69.90;;;;;;5109417;27;20464;-63
2023/07/06 11:03:38;;;;;;;21.20;7.50;;;25.50;66.30;;;;;;5112635;27;20472;-63
2023/07/06 11:06:07;;;;;;;20.97;9.40;;;25.60;64.80;;;;;;5123873;27;20682;-63
2023/07/06 11:09:10;;;;;;;18.40;9.10;;;26.10;66.90;;;;;;5063802;27;20515;-65
2023/07/06 11:11:39;;;;;;;16.40;8.00;;;26.30;62.60;;;;;;5069714;27;21020;-64
2023/07/06 11:14:24;;;;;;;20.43;8.80;;;26.60;62.70;;;;;;5107533;27;20453;-63
2023/07/06 11:16:56;;;;;;;13.30;6.83;;;26.70;64.50;;;;;;5115657;27;20459;-63
2023/07/06 11:19:28;;;;;;;21.10;7.90;;;27.00;64.60;;;;;;5118461;27;20453;-62
2023/07/06 11:22:00;;;;;;;17.93;9.20;;;27.10;62.80;;;;;;5118932;27;20814;-63
2023/07/06 11:24:32;;;;;;;16.20;7.23;;;27.30;66.50;;;;;;5114780;27;21082;-62
2023/07/06 11:27:04;;;;;;;26.13;10.10;;;27.30;64.60;;;;;;5121361;27;20450;-63
2023/07/06 11:29:34;;;;;;;16.20;8.00;;;27.10;62.80;;;;;;5124451;27;20464;-63
2023/07/06 11:32:20;;;;;;;19.63;7.70;;;27.30;66.00;;;;;;5122863;27;20452;-63
2023/07/06 11:35:04;;;;;;;19.97;8.10;;;27.30;64.10;;;;;;5112577;27;20484;-62
2023/07/06 11:37:42;;;;;;;18.97;8.40;;;27.50;66.10;;;;;;5123487;27;20451;-62
2023/07/06 11:40:20;;;;;;;27.63;11.40;;;27.30;60.20;;;;;;5116109;27;20756;-62
2023/07/06 11:43:00;;;;;;;16.80;8.30;;;27.20;63.20;;;;;;5122526;27;20971;-63
2023/07/06 11:45:35;;;;;;;17.20;8.00;;;27.10;62.50;;;;;;5126995;27;20499;-62
2023/07/06 11:48:15;;;;;;;92.67;27.23;;;27.20;63.90;;;;;;5123382;27;20526;-63
2023/07/06 11:50:43;;;;;;;28.60;8.93;;;;;;;;;;5122535;27;20488;-63
2023/07/06 11:53:29;;;;;;;41.00;12.87;;;27.40;60.00;;;;;;5126321;27;20620;-63
2023/07/06 11:56:05;;;;;;;20.77;7.70;;;;;;;;;;5123137;27;21877;-63
2023/07/06 11:58:53;;;;;;;19.40;7.10;;;28.00;62.40;;;;;;5125670;27;20484;-63
2023/07/06 12:01:32;;;;;;;18.47;7.13;;;28.30;61.70;;;;;;5123730;27;20443;-64
2023/07/06 12:04:02;;;;;;;25.13;9.00;;;28.40;57.40;;;;;;5123932;27;20587;-64
2023/07/06 12:06:30;;;;;;;21.17;8.60;;;28.50;62.40;;;;;;5124848;27;20449;-64
2023/07/06 12:09:01;;;;;;;28.37;8.97;;;28.80;60.90;;;;;;5121253;27;20826;-63
2023/07/06 12:11:29;;;;;;;21.20;7.83;;;28.80;58.80;;;;;;5117434;27;20732;-64
2023/07/06 12:13:58;;;;;;;13.80;6.20;;;31.20;58.60;;;;;;5113984;27;20456;-65
2023/07/06 12:16:27;;;;;;;20.50;8.10;;;27.80;55.60;;;;;;5114142;27;21205;-63
2023/07/06 12:18:58;;;;;;;18.97;7.90;;;27.40;56.20;;;;;;5116519;27;20463;-63
2023/07/06 12:21:31;;;;;;;17.27;5.77;;;27.30;57.30;;;;;;5117280;27;20718;-63
2023/07/06 12:23:59;;;;;;;22.87;9.37;;;27.30;57.40;;;;;;5116009;27;20709;-63
2023/07/06 12:26:29;;;;;;;18.63;6.83;;;27.80;59.60;;;;;;5117702;27;20475;-63
2023/07/06 12:28:58;;;;;;;23.63;8.20;;;27.70;58.20;;;;;;5117166;27;20490;-62
2023/07/06 12:31:25;;;;;;;20.43;7.57;;;27.80;59.30;;;;;;5116894;27;20834;-63
2023/07/06 12:33:54;;;;;;;44.73;9.70;;;27.90;59.20;;;;;;5116878;27;20561;-63
2023/07/06 12:36:23;;;;;;;20.20;7.33;;;28.00;59.40;;;;;;5118789;27;20442;-63
2023/07/06 12:38:56;;;;;;;13.60;5.87;;;28.10;59.90;;;;;;5117760;27;21048;-63
2023/07/06 12:41:23;;;;;;;19.00;6.37;;;28.00;60.30;;;;;;5114982;27;20622;-62
2023/07/06 12:43:53;;;;;;;21.37;8.50;;;28.00;59.80;;;;;;5117489;27;20850;-63
2023/07/06 12:46:21;;;;;;;19.90;7.73;;;27.90;60.00;;;;;;5118962;27;20499;-63
2023/07/06 12:48:51;;;;;;;14.40;5.57;;;27.60;59.50;;;;;;5119013;27;20459;-63
2023/07/06 12:51:23;;;;;;;16.03;6.47;;;27.60;60.60;;;;;;5117162;27;21040;-63
2023/07/06 12:53:52;;;;;;;13.03;5.43;;;27.40;58.50;;;;;;5117154;27;20483;-63
2023/07/06 12:56:20;;;;;;;17.87;6.73;;;27.30;59.10;;;;;;5117251;27;20458;-63
2023/07/06 12:58:54;;;;;;;17.00;6.90;;;27.50;59.20;;;;;;5118652;27;20464;-63
2023/07/06 13:01:21;;;;;;;20.77;6.97;;;27.60;58.30;;;;;;5117258;27;20825;-63
2023/07/06 13:03:52;;;;;;;26.63;8.80;;;27.70;59.20;;;;;;5116993;27;20463;-63